createdAt,value
2023-02-12T00:01:17.974Z,103379.97
2023-02-12T00:05:23.353Z,103384.38
2023-02-12T00:09:26.273Z,103390.97
2023-02-12T00:13:32.096Z,103390.75
2023-02-12T00:17:35.291Z,103394.16
2023-02-12T00:21:39.638Z,103401.03
2023-02-12T00:25:43.771Z,103392.75
2023-02-12T00:29:46.724Z,103395.16
2023-02-12T00:33:49.815Z,103393.31
2023-02-12T00:37:54.100Z,103398.03
2023-02-12T00:41:57.329Z,103387.19
2023-02-12T00:46:00.887Z,103388.19
2023-02-12T00:50:04.590Z,103392.28
2023-02-12T00:54:08.859Z,103393.13
2023-02-12T00:58:11.993Z,103393.47
2023-02-12T01:02:15.011Z,103402.75
2023-02-12T01:06:18.038Z,103398.31
2023-02-12T01:10:26.276Z,103397.88
2023-02-12T01:14:29.644Z,103405.84
2023-02-12T01:18:33.284Z,103403.13
2023-02-12T01:22:36.651Z,103402.59
2023-02-12T01:26:41.115Z,103403.59
2023-02-12T01:30:44.310Z,103404.56
2023-02-12T01:34:47.237Z,103404.56
2023-02-12T01:38:51.774Z,103407.28
2023-02-12T01:42:57.050Z,103401.19
2023-02-12T01:47:03.265Z,103402.75
2023-02-12T01:51:08.472Z,103415.41
2023-02-12T01:55:13.008Z,103410.16
2023-02-12T01:59:19.721Z,103403.91
2023-02-12T02:03:22.917Z,103397.63
2023-02-12T02:07:26.311Z,103397.13
2023-02-12T02:11:47.271Z,103399.81
2023-02-12T02:15:57.855Z,103395.72
2023-02-12T02:20:40.175Z,103397.41
2023-02-12T02:25:09.880Z,103390.97
2023-02-12T02:29:28.973Z,103388.28
2023-02-12T02:33:42.845Z,103386.41
2023-02-12T02:37:51.278Z,103376.19
2023-02-12T02:42:11.478Z,103373.81
2023-02-12T02:46:21.636Z,103365.31
2023-02-12T02:50:30.336Z,103366.31
2023-02-12T02:54:38.628Z,103370.03
2023-02-12T02:58:45.334Z,103363.09
2023-02-12T03:02:53.382Z,103362.22
2023-02-12T03:07:03.275Z,103357.13
2023-02-12T03:11:11.965Z,103363.88
2023-02-12T03:15:22.260Z,103366.56
2023-02-12T03:19:30.590Z,103371.13
2023-02-12T03:23:40.640Z,103360.63
2023-02-12T03:27:48.129Z,103368.06
2023-02-12T03:32:04.862Z,103368.75
2023-02-12T03:36:17.832Z,103367.91
2023-02-12T03:40:29.303Z,103371.63
2023-02-12T03:44:48.895Z,103365.38
2023-02-12T03:49:00.398Z,103362.50
2023-02-12T03:53:03.916Z,103364.66
2023-02-12T03:57:11.496Z,103367.53
2023-02-12T04:01:15.044Z,103382.75
2023-02-12T04:05:20.581Z,103382.94
2023-02-12T04:09:25.746Z,103392.91
2023-02-12T04:13:40.873Z,103383.94
2023-02-12T04:17:51.156Z,103397.09
2023-02-12T04:22:13.054Z,103397.25
2023-02-12T04:26:24.820Z,103398.78
2023-02-12T04:30:36.510Z,103402.00
2023-02-12T04:34:48.370Z,103407.53
2023-02-12T04:38:56.221Z,103413.28
2023-02-12T04:42:59.179Z,103417.84
2023-02-12T04:47:03.817Z,103427.13
2023-02-12T04:51:06.921Z,103417.44
2023-02-12T04:55:09.963Z,103421.84
2023-02-12T04:59:13.041Z,103422.19
2023-02-12T05:03:17.618Z,103421.34
2023-02-12T05:07:20.752Z,103426.03
2023-02-12T05:11:24.214Z,103420.94
2023-02-12T05:15:27.479Z,103424.94
2023-02-12T05:19:32.288Z,103423.25
2023-02-12T05:23:37.161Z,103425.25
2023-02-12T05:27:42.186Z,103432.69
2023-02-12T05:31:45.829Z,103430.69
2023-02-12T05:35:51.102Z,103422.25
2023-02-12T05:39:54.523Z,103418.53
2023-02-12T05:43:57.802Z,103420.69
2023-02-12T05:48:00.837Z,103434.53
2023-02-12T05:52:06.080Z,103435.69
2023-02-12T05:56:11.192Z,103435.84
2023-02-12T06:00:15.382Z,103434.00
2023-02-12T06:04:20.576Z,103440.59
2023-02-12T06:08:25.186Z,103431.91
2023-02-12T06:12:28.059Z,103440.00
2023-02-12T06:16:31.213Z,103446.59
2023-02-12T06:20:34.292Z,103446.88
2023-02-12T06:24:39.627Z,103438.75
2023-02-12T06:28:42.970Z,103443.34
2023-02-12T06:32:50.006Z,103440.19
2023-02-12T06:36:53.326Z,103445.59
2023-02-12T06:40:58.366Z,103444.75
2023-02-12T06:45:03.600Z,103445.59
2023-02-12T06:49:07.016Z,103444.75
2023-02-12T06:53:09.988Z,103453.56
2023-02-12T06:57:14.321Z,103466.78
2023-02-12T07:01:19.176Z,103469.78
2023-02-12T07:05:22.409Z,103464.81
2023-02-12T07:09:25.345Z,103477.22
2023-02-12T07:13:30.446Z,103478.91
2023-02-12T07:17:33.487Z,103479.78
2023-02-12T07:21:37.124Z,103482.31
2023-02-12T07:25:40.405Z,103485.88
2023-02-12T07:29:44.737Z,103494.00
2023-02-12T07:33:48.457Z,103492.84
2023-02-12T07:37:51.529Z,103497.44
2023-02-12T07:41:54.579Z,103511.25
2023-02-12T07:46:07.440Z,103511.09
2023-02-12T07:50:11.294Z,103515.22
2023-02-12T07:54:14.834Z,103525.19
2023-02-12T07:58:18.160Z,103533.47
2023-02-12T08:02:25.539Z,103530.28
2023-02-12T08:06:30.166Z,103521.16
2023-02-12T08:10:33.077Z,103534.09
2023-02-12T08:14:36.924Z,103532.22
2023-02-12T08:18:41.990Z,103535.66
2023-02-12T08:22:45.035Z,103539.75
2023-02-12T08:26:48.047Z,103551.41
2023-02-12T08:30:51.098Z,103541.09
2023-02-12T08:34:56.919Z,103560.28
2023-02-12T08:39:00.142Z,103565.44
2023-02-12T08:43:03.727Z,103566.13
2023-02-12T08:47:07.210Z,103572.63
2023-02-12T08:51:13.372Z,103564.06
2023-02-12T08:55:16.540Z,103562.03
2023-02-12T08:59:19.664Z,103573.44
2023-02-12T09:03:24.930Z,103564.28
2023-02-12T09:07:29.779Z,103577.50
2023-02-12T09:11:35.512Z,103570.97
2023-02-12T09:15:39.157Z,103567.75
2023-02-12T09:19:42.259Z,103584.25
2023-02-12T09:23:47.425Z,103591.19
2023-02-12T09:27:51.141Z,103591.44
2023-02-12T09:31:54.352Z,103592.50
2023-02-12T09:36:02.079Z,103587.31
2023-02-12T09:40:07.842Z,103591.09
2023-02-12T09:44:18.545Z,103583.66
2023-02-12T09:48:48.974Z,103584.88
2023-02-12T09:52:53.204Z,103589.69
2023-02-12T09:57:01.914Z,103587.19
2023-02-12T10:01:13.611Z,103600.47
2023-02-12T10:05:21.592Z,103598.59
2023-02-12T10:09:45.598Z,103597.13
2023-02-12T10:13:59.292Z,103591.34
2023-02-12T10:18:17.197Z,103599.81
2023-02-12T10:22:27.997Z,103590.03
2023-02-12T10:26:32.956Z,103599.75
2023-02-12T10:30:44.015Z,103595.72
2023-02-12T10:34:49.626Z,103600.00
2023-02-12T10:38:59.370Z,103594.78
2023-02-12T10:43:03.550Z,103592.63
2023-02-12T10:47:08.642Z,103593.13
2023-02-12T10:51:30.930Z,103586.22
2023-02-12T10:55:36.805Z,103588.47
2023-02-12T10:59:40.333Z,103584.09
2023-02-12T11:03:44.829Z,103590.41
2023-02-12T11:07:50.627Z,103589.03
2023-02-12T11:11:53.427Z,103590.25
2023-02-12T11:15:56.692Z,103589.75
2023-02-12T11:20:24.947Z,103575.69
2023-02-12T11:24:31.868Z,103579.25
2023-02-12T11:28:37.208Z,103573.16
2023-02-12T11:32:40.786Z,103573.16
2023-02-12T11:36:46.950Z,103557.38
2023-02-12T11:40:50.452Z,103556.75
2023-02-12T11:44:55.998Z,103552.03
2023-02-12T11:49:00.810Z,103546.06
2023-02-12T11:53:09.434Z,103543.69
2023-02-12T11:57:36.818Z,103541.47
2023-02-12T12:01:41.774Z,103538.25
2023-02-12T12:05:49.286Z,103531.59
2023-02-12T12:10:01.281Z,103524.47
2023-02-12T12:14:10.539Z,103530.09
2023-02-12T12:18:44.333Z,103524.28
2023-02-12T12:22:55.252Z,103512.72
2023-02-12T12:27:14.195Z,103501.16
2023-02-12T12:31:21.073Z,103516.44
2023-02-12T12:35:37.513Z,103510.84
2023-02-12T12:39:54.898Z,103504.19
2023-02-12T12:44:16.719Z,103495.34
2023-02-12T12:48:34.771Z,103491.59
2023-02-12T12:53:01.677Z,103493.63
2023-02-12T12:57:11.625Z,103482.38
2023-02-12T13:01:38.606Z,103478.25
2023-02-12T13:06:27.598Z,103473.66
2023-02-12T13:10:36.831Z,103473.50
2023-02-12T13:14:48.397Z,103471.47
2023-02-12T13:19:00.688Z,103470.59
2023-02-12T13:23:10.597Z,103475.69
2023-02-12T13:27:17.737Z,103461.91
2023-02-12T13:31:32.961Z,103462.06
2023-02-12T13:35:43.464Z,103469.25
2023-02-12T13:39:50.299Z,103469.56
2023-02-12T13:44:11.840Z,103466.72
2023-02-12T13:48:45.052Z,103470.13
2023-02-12T13:52:53.932Z,103466.75
2023-02-12T13:56:59.888Z,103464.88
2023-02-12T14:01:04.934Z,103467.25
2023-02-12T14:05:18.787Z,103471.34
2023-02-12T14:09:29.941Z,103462.81
2023-02-12T14:13:37.832Z,103466.38
2023-02-12T14:17:52.899Z,103467.91
2023-02-12T14:21:56.135Z,103464.19
2023-02-12T14:26:04.945Z,103466.94
2023-02-12T14:30:28.910Z,103470.38
2023-02-12T14:34:40.148Z,103456.25
2023-02-12T14:39:02.688Z,103452.03
2023-02-12T14:43:26.782Z,103455.59
2023-02-12T14:47:53.672Z,103456.25
2023-02-12T14:52:01.498Z,103455.41
2023-02-12T14:56:09.306Z,103452.88
2023-02-12T15:00:26.485Z,103454.56
2023-02-12T15:04:33.267Z,103445.88
2023-02-12T15:08:45.949Z,103438.72
2023-02-12T15:12:55.841Z,103440.75
2023-02-12T15:17:10.007Z,103443.47
2023-02-12T15:21:20.964Z,103444.31
2023-02-12T15:25:26.798Z,103434.63
2023-02-12T15:29:33.070Z,103436.13
2023-02-12T15:33:42.818Z,103433.97
2023-02-12T15:37:48.078Z,103434.31
2023-02-12T15:41:52.181Z,103432.59
2023-02-12T15:45:55.568Z,103432.28
2023-02-12T15:50:01.752Z,103428.06
2023-02-12T15:54:07.990Z,103430.59
2023-02-12T15:58:22.526Z,103426.84
2023-02-12T16:02:28.339Z,103434.19
2023-02-12T16:06:34.701Z,103427.88
2023-02-12T16:10:43.610Z,103437.59
2023-02-12T16:14:49.892Z,103435.38
2023-02-12T16:19:18.542Z,103421.28
2023-02-12T16:23:23.726Z,103422.13
2023-02-12T16:27:30.205Z,103427.09
2023-02-12T16:31:33.343Z,103422.63
2023-02-12T16:35:36.720Z,103422.81
2023-02-12T16:40:21.324Z,103427.78
2023-02-12T16:44:34.607Z,103424.53
2023-02-12T16:48:42.521Z,103432.19
2023-02-12T16:52:45.686Z,103434.22
2023-02-12T16:56:49.345Z,103425.72
2023-02-12T17:00:54.689Z,103431.00
2023-02-12T17:05:00.857Z,103441.84
2023-02-12T17:09:04.796Z,103439.13
2023-02-12T17:13:08.916Z,103444.25
2023-02-12T17:17:13.348Z,103458.81
2023-02-12T17:21:22.796Z,103452.91
2023-02-12T17:25:30.113Z,103454.75
2023-02-12T17:29:33.237Z,103462.41
2023-02-12T17:33:37.648Z,103462.91
2023-02-12T17:37:40.875Z,103465.63
2023-02-12T17:41:44.693Z,103472.94
2023-02-12T17:45:47.742Z,103469.69
2023-02-12T17:49:52.459Z,103472.91
2023-02-12T17:53:55.526Z,103473.25
2023-02-12T17:57:59.240Z,103476.28
2023-02-12T18:02:02.774Z,103477.47
2023-02-12T18:06:09.397Z,103476.63
2023-02-12T18:10:12.793Z,103484.78
2023-02-12T18:14:15.672Z,103483.41
2023-02-12T18:18:19.587Z,103488.16
2023-02-12T18:22:24.834Z,103488.81
2023-02-12T18:26:27.970Z,103488.63
2023-02-12T18:30:31.263Z,103483.22
2023-02-12T18:34:35.538Z,103486.94
2023-02-12T18:38:41.569Z,103485.25
2023-02-12T18:42:46.191Z,103487.97
2023-02-12T18:46:59.891Z,103478.13
2023-02-12T18:51:23.382Z,103474.69
2023-02-12T18:55:53.552Z,103465.88
2023-02-12T19:00:22.994Z,103476.06
2023-02-12T19:04:52.468Z,103476.06
2023-02-12T19:09:10.327Z,103473.50
2023-02-12T19:13:14.613Z,103470.81
2023-02-12T19:17:18.632Z,103471.28
2023-02-12T19:21:26.050Z,103474.66
2023-02-12T19:25:42.790Z,103477.16
2023-02-12T19:29:47.077Z,103478.88
2023-02-12T19:33:51.397Z,103478.69
2023-02-12T19:37:55.029Z,103472.41
2023-02-12T19:41:58.050Z,103472.41
2023-02-12T19:46:07.111Z,103469.56
2023-02-12T19:50:15.960Z,103468.84
2023-02-12T19:54:29.481Z,103475.13
2023-02-12T19:58:45.958Z,103475.31
2023-02-12T20:03:00.267Z,103476.31
2023-02-12T20:07:04.129Z,103456.66
2023-02-12T20:11:09.696Z,103454.25
2023-02-12T20:15:12.728Z,103460.50
2023-02-12T20:19:19.624Z,103458.81
2023-02-12T20:23:23.297Z,103460.00
2023-02-12T20:27:27.296Z,103460.00
2023-02-12T20:31:33.817Z,103454.41
2023-02-12T20:35:41.495Z,103455.44
2023-02-12T20:39:45.925Z,103445.72
2023-02-12T20:43:55.128Z,103459.47
2023-02-12T20:48:04.772Z,103454.38
2023-02-12T20:52:24.206Z,103463.38
2023-02-12T20:56:36.836Z,103459.97
2023-02-12T21:00:39.715Z,103459.44
2023-02-12T21:04:43.422Z,103459.44
2023-02-12T21:08:48.108Z,103455.88
2023-02-12T21:12:55.147Z,103467.59
2023-02-12T21:17:05.617Z,103462.16
2023-02-12T21:21:12.238Z,103455.19
2023-02-12T21:25:20.597Z,103448.06
2023-02-12T21:29:26.475Z,103447.19
2023-02-12T21:33:29.813Z,103451.94
2023-02-12T21:37:33.139Z,103453.81
2023-02-12T21:41:42.845Z,103450.25
2023-02-12T21:46:15.367Z,103448.56
2023-02-12T21:50:30.640Z,103454.16
2023-02-12T21:54:34.308Z,103458.56
2023-02-12T21:58:38.870Z,103448.72
2023-02-12T22:02:42.447Z,103453.44
2023-02-12T22:06:49.151Z,103458.03
2023-02-12T22:10:52.062Z,103452.75
2023-02-12T22:14:56.264Z,103452.94
2023-02-12T22:19:01.758Z,103453.09
2023-02-12T22:23:05.146Z,103446.13
2023-02-12T22:27:09.577Z,103446.44
2023-02-12T22:31:17.155Z,103438.63
2023-02-12T22:35:21.552Z,103440.81
2023-02-12T22:39:25.628Z,103439.81
2023-02-12T22:43:51.042Z,103444.69
2023-02-12T22:48:17.912Z,103445.69
2023-02-12T22:52:20.987Z,103441.97
2023-02-12T22:56:25.665Z,103437.41
2023-02-12T23:00:29.423Z,103433.16
2023-02-12T23:04:34.773Z,103442.13
2023-02-12T23:08:38.370Z,103435.69
2023-02-12T23:12:41.492Z,103442.13
2023-02-12T23:16:44.600Z,103435.88
2023-02-12T23:20:50.124Z,103431.63
2023-02-12T23:24:53.298Z,103423.63
2023-02-12T23:28:56.998Z,103433.41
2023-02-12T23:33:00.483Z,103421.91
2023-02-12T23:37:05.459Z,103429.34
2023-02-12T23:41:08.431Z,103422.38
2023-02-12T23:45:12.275Z,103416.44
2023-02-12T23:49:15.562Z,103416.72
2023-02-12T23:53:20.050Z,103416.22
2023-02-12T23:57:23.206Z,103413.66
